Flight Track Log - Related Links

Times and Time Zones

All times are in EDT time to prevent confusion due to time zone crossing. See the SWA267 flight status page for this flight to view local times or setup timezone preferences in your user account.

Time Position Orientation Groundspeed Altitude Reporting Facility
EDT Latitude Longitude Course Direction KTS MPH feet Rate Location/Type
Fri 12:35:35 PM 36.9308 -76.1686 36° Northeast 180 207 1,700  Level Washington Center
Fri 12:36:38 PM 36.9831 -76.1406 23° Northeast 230 265 4,400 2,492 Climbing Washington Center
Fri 12:37:33 PM 37.0183 -76.1981 308° West 262 302 6,600 2,452 Climbing Washington Center
Fri 12:38:33 PM 37.0178 -76.2839 270° West 255 293 9,100 1,479 Climbing Washington Center
Fri 12:39:55 PM 37.0211 -76.4086 272° West 300 345 10,100 1,114 Climbing Washington Center
Fri 12:40:53 PM 37.0683 -76.5108 300° West 316 364 11,700 1,983 Climbing Washington Center
Fri 12:41:53 PM 37.1156 -76.6258 297° West 341 392 14,000 2,115 Climbing Washington Center
Fri 12:42:55 PM 37.1644 -76.7361 299° West 352 405 16,000 1,000 Climbing Washington Center
Fri 12:43:53 PM 37.2114 -76.8461 298° West 357 411 16,000  Level Washington Center
Fri 12:44:53 PM 37.2642 -76.9722 298° West 368 423 16,000  Level Washington Center
Fri 12:45:54 PM 37.3150 -77.0856 299° West 368 423 16,000  Level Washington Center
Fri 12:46:54 PM 37.3806 -77.1836 310° West 376 433 16,000  Level Washington Center
Fri 12:47:55 PM 37.4567 -77.2689 318° Northwest 371 427 16,000  Level Washington Center
Fri 12:48:55 PM 37.5519 -77.3181 338° Northwest 360 414 16,000  Level Washington Center
Fri 12:49:53 PM 37.6564 -77.2917 11° North 350 403 16,000  Level Washington Center
Fri 12:50:54 PM 37.7547 -77.2703 10° North 350 403 16,000  Level Washington Center
Fri 12:51:55 PM 37.8469 -77.2486 11° North 345 397 16,000  Level Washington Center
Fri 12:52:55 PM 37.9411 -77.2294 North 345 397 16,000  Level Washington Center
Fri 12:53:54 PM 38.0372 -77.2106 North 345 397 16,000  Level Washington Center
Fri 12:54:54 PM 38.1231 -77.1939 North 345 397 16,000  Level Washington Center
Fri 12:55:55 PM 38.2275 -77.1669 11° North 350 403 16,000 -303 Level Washington Center
Fri 12:56:53 PM 38.3111 -77.1556 North 350 403 15,400 -504 Descending Washington Center
Fri 12:57:54 PM 38.4033 -77.1150 19° North 350 403 15,000 -1,131 Descending Washington Center
Fri 12:58:55 PM 38.4733 -77.0289 44° Northeast 334 384 13,100 -1,513 Descending Washington Center
Fri 12:59:53 PM 38.5431 -76.9428 44° Northeast 345 397 12,000 -1,261 Descending Washington Center
Fri 01:00:54 PM 38.6106 -76.8617 43° Northeast 333 383 10,600 -1,059 Descending Washington Center
Fri 01:01:52 PM 38.6719 -76.7856 44° Northeast 319 367 9,900 -1,075 Descending Washington Center
Fri 01:04:15 PM 38.7833 -76.5833 55° Northeast 276 318 7,000 -1,330 Descending Potomac TRACON
Fri 01:05:15 PM 38.8333 -76.5167 46° Northeast 265 305 5,400 -1,350 Descending Potomac TRACON
Fri 01:06:15 PM 38.9000 -76.5167 360° North 243 280 4,300 -950 Descending Potomac TRACON
Fri 01:07:15 PM 38.9667 -76.5167 360° North 236 272 3,500 -700 Descending Potomac TRACON
Fri 01:08:15 PM 39.0167 -76.5333 345° North 219 252 2,900 -450 Descending Potomac TRACON
Fri 01:09:15 PM 39.0667 -76.5667 333° Northwest 213 245 2,600 -744 Descending Potomac TRACON
Fri 01:10:16 PM 39.1167 -76.6167 322° Northwest 193 222 1,400 -1,041 Descending Potomac TRACON
Fri 01:11:16 PM 39.1500 -76.6500 322° Northwest 143 165 500 -900 Descending Potomac TRACON
Fri 01:13:00 PM 39.1667 -76.6667 339° North  Level FlightAware Approximate
Fri 01:20:00 PM 39.1754 -76.6683 339° North  Level Estimated
Fri 01:21:00 PM 39.1754 -76.6683 339° North  Level Estimated
Fri 01:22:00 PM 39.1754 -76.6683 339° North  Level Estimated
Fri 01:23:00 PM 39.1754 -76.6683 339° North  Level Estimated

Login

Don't have an account? Register now (free) for customized features, flight alerts, and more!